Data for 08/09/2013

Time Sea-Level Adjusted Pressure Absolute Pressure Temperature Relative Humidity Dew Point   
(mb) (inHg) (mb) (inHg) (C) (F) (%) (C) (F)
00:05 1022 30.18 851 25.13 16.7 62.1 63 9.8 49.7
00:10 1022 30.18 851 25.13 16.7 62.1 63 9.8 49.6
00:15 1022 30.18 851 25.13 16.8 62.2 64 9.9 49.8
00:20 1022 30.18 851 25.13 16.7 62.1 64 9.9 49.8
00:25 1022 30.18 851 25.13 16.6 61.9 64 9.9 49.8
00:30 1022 30.18 851 25.13 16.6 61.9 64 9.8 49.7
00:35 1022 30.18 851 25.13 16.6 61.9 64 9.8 49.6
00:40 1022 30.18 851 25.13 16.6 61.9 64 9.8 49.7
00:45 1022 30.18 851 25.13 16.5 61.8 64 9.9 49.7
00:50 1022 30.18 851 25.13 16.5 61.7 64 9.8 49.7
00:55 1022 30.18 851 25.13 16.5 61.6 64 9.7 49.5
01:00 1022 30.18 851 25.13 16.5 61.7 64 9.8 49.6
01:05 1022 30.18 851 25.13 16.5 61.7 64 9.7 49.5
01:10 1022 30.18 851 25.13 16.5 61.8 64 9.7 49.5
01:15 1022 30.18 851 25.13 16.5 61.7 64 9.7 49.5
01:20 1022 30.18 851 25.13 16.5 61.7 63 9.6 49.2
01:25 1022 30.18 851 25.13 16.6 61.9 62 9.4 49
01:30 1022 30.18 851 25.13 16.7 62 62 9.5 49.1
01:35 1022 30.18 851 25.13 16.6 61.9 63 9.5 49.1
01:40 1022 30.18 851 25.13 16.6 61.8 62 9.5 49
01:45 1022 30.18 851 25.13 16.5 61.7 63 9.6 49.3
01:50 1022 30.18 851 25.13 16.4 61.6 63 9.5 49.1
01:55 1022 30.18 851 25.13 16.5 61.6 63 9.5 49.1
02:00 1022 30.18 851 25.13 16.5 61.6 63 9.4 48.9
02:05 1022 30.18 851 25.13 16.4 61.6 63 9.5 49.2
02:10 1022 30.18 851 25.13 16.2 61.2 64 9.5 49.1
02:15 1022 30.18 851 25.13 16.1 60.9 65 9.5 49.1
02:20 1022 30.18 851 25.13 16 60.9 65 9.4 48.9
02:25 1022 30.18 851 25.13 16 60.8 65 9.5 49.1
02:30 1022 30.18 851 25.13 15.8 60.5 66 9.6 49.3
02:35 1022 30.18 851 25.13 15.7 60.2 67 9.6 49.2
02:40 1022 30.18 851 25.13 15.6 60.1 67 9.6 49.3
02:45 1022 30.18 851 25.13 15.5 59.8 68 9.6 49.3
02:50 1022 30.18 851 25.13 15.4 59.7 68 9.5 49.2
02:55 1022 30.18 851 25.13 15.4 59.7 68 9.5 49.1
03:00 1022 30.18 851 25.13 15.4 59.7 67 9.5 49
03:05 1022 30.18 851 25.13 15.5 59.8 67 9.5 49.1
03:10 1022 30.18 851 25.13 15.4 59.7 68 9.5 49.1
03:15 1022 30.18 851 25.13 15.4 59.6 68 9.5 49.1
03:20 1022 30.18 851 25.13 15.4 59.6 67 9.4 48.8
03:25 1022 30.18 851 25.13 15.3 59.6 67 9.4 49
03:30 1022 30.18 851 25.13 15.2 59.4 68 9.3 48.8
03:35 1022 30.18 851 25.13 15.2 59.3 67 9.3 48.7
03:40 1022 30.18 851 25.13 15.1 59.3 68 9.3 48.7
03:45 1022 30.18 851 25.13 15.1 59.1 68 9.2 48.5
03:50 1022 30.18 851 25.13 15.1 59.1 68 9.3 48.7
03:55 1022 30.18 851 25.13 14.9 58.8 68 9.2 48.5
04:00 1022 30.18 851 25.13 14.9 58.7 69 9.3 48.7
04:05 1022 30.18 851 25.13 14.8 58.6 69 9.2 48.5
04:10 1022 30.18 851 25.13 14.8 58.6 69 9.2 48.5
04:15 1022 30.18 851 25.13 14.8 58.6 69 9.2 48.5
04:20 1022 30.18 851 25.13 14.7 58.5 69 9.1 48.4
04:25 1022 30.18 851 25.13 14.7 58.4 69 9 48.3
04:30 1022 30.18 851 25.13 14.7 58.5 69 9.2 48.5
04:35 1022 30.18 851 25.13 14.6 58.3 69 9.2 48.5
04:40 1022 30.18 851 25.13 14.6 58.2 70 9.2 48.5
04:45 1022 30.18 851 25.13 14.6 58.2 70 9.1 48.5
04:50 1022 30.18 851 25.13 14.6 58.2 70 9.1 48.5
04:55 1022 30.18 851 25.13 14.6 58.2 69 9.1 48.3
05:00 1022 30.18 851 25.13 14.6 58.3 69 9.1 48.3
05:05 1022 30.18 851 25.13 14.7 58.5 69 9.1 48.4
05:10 1022 30.18 851 25.13 14.7 58.5 69 9.1 48.3
05:15 1022 30.18 851 25.13 14.8 58.6 68 9 48.1
05:20 1022 30.18 851 25.13 14.8 58.6 68 9 48.3
05:25 1022 30.18 851 25.13 14.7 58.5 69 9.1 48.3
05:30 1022 30.18 851 25.13 14.7 58.4 68 9 48.2
05:35 1022 30.18 851 25.13 14.8 58.6 68 9 48.1
05:40 1022 30.18 851 25.13 14.8 58.6 68 9 48.2
05:45 1022 30.18 851 25.13 14.7 58.5 68 9 48.2
05:50 1022 30.18 851 25.13 14.8 58.6 68 8.9 48.1
05:55 1022 30.18 851 25.13 14.8 58.6 68 9 48.1
06:00 1022 30.18 852 25.16 14.8 58.6 68 9 48.2
06:05 1022 30.18 852 25.16 14.8 58.6 68 9 48.1
06:10 1022 30.18 852 25.16 14.8 58.7 68 9 48.2
06:15 1022 30.18 852 25.16 14.8 58.7 68 8.9 48.1
06:20 1022 30.18 852 25.16 14.8 58.7 67 8.9 48.1
06:25 1023 30.21 852 25.16 14.9 58.7 68 9 48.2
06:30 1023 30.21 852 25.16 14.9 58.7 68 9 48.2
06:35 1023 30.21 852 25.16 14.9 58.8 67 9 48.1
06:40 1023 30.21 852 25.16 14.9 58.8 67 8.9 48.1
06:45 1023 30.21 852 25.16 14.9 58.9 67 9 48.1
06:50 1023 30.21 852 25.16 15 58.9 67 9 48.2
06:55 1023 30.21 852 25.16 15 58.9 67 9 48.1
07:00 1023 30.21 852 25.16 15 58.9 67 9.1 48.3
07:05 1023 30.21 852 25.16 15 58.9 67 8.9 48.1
07:10 1023 30.21 852 25.16 15 59 67 9 48.2
07:15 1023 30.21 852 25.16 15 59 67 9 48.2
07:20 1023 30.21 852 25.16 15 59 67 9 48.2
07:25 1023 30.21 852 25.16 15 59 67 8.9 48
07:30 1023 30.21 852 25.16 15 59 66 8.8 47.9
07:35 1023 30.21 852 25.16 15.2 59.3 65 8.8 47.8
07:40 1023 30.21 852 25.16 15.5 59.9 64 8.9 48
07:45 1023 30.21 852 25.16 15.8 60.5 63 8.9 47.9
07:50 1023 30.21 852 25.16 15.8 60.5 64 9.1 48.3
07:55 1023 30.21 852 25.16 15.7 60.3 64 9.1 48.3
08:00 1023 30.21 852 25.16 15.7 60.3 64 9 48.2
08:05 1023 30.21 852 25.16 15.7 60.3 64 9.1 48.3
08:10 1023 30.21 852 25.16 15.8 60.5 64 9 48.3
08:15 1023 30.21 852 25.16 16.1 60.9 62 8.9 48
08:20 1023 30.21 852 25.16 16.1 61 62 8.9 48
08:25 1023 30.21 852 25.16 16.5 61.7 61 9.1 48.3
08:30 1023 30.21 852 25.16 16.6 61.9 61 9.1 48.3
08:35 1023 30.21 852 25.16 16.6 61.9 61 9.1 48.4
08:40 1023 30.21 852 25.16 16.7 62 60 9.1 48.3
08:45 1023 30.21 852 25.16 16.6 61.9 60 9 48.2
08:50 1023 30.21 852 25.16 16.6 61.9 61 9.2 48.6
08:55 1023 30.21 852 25.16 16.6 62 61 9.3 48.7
09:00 1023 30.21 852 25.16 16.7 62 61 9.1 48.4
09:05 1023 30.21 852 25.16 16.8 62.3 60 9.2 48.5
09:10 1023 30.21 852 25.16 16.9 62.4 61 9.3 48.7
09:15 1023 30.21 852 25.16 16.8 62.2 61 9.2 48.6
09:20 1023 30.21 852 25.16 16.9 62.3 60 9.1 48.4
09:25 1023 30.21 852 25.16 17.1 62.7 60 9.2 48.6
09:30 1023 30.21 852 25.16 17 62.7 60 9.4 48.8
09:35 1023 30.21 852 25.16 17.1 62.8 60 9.3 48.8
09:40 1022 30.18 852 25.16 17.1 62.9 60 9.4 48.9
09:45 1022 30.18 852 25.16 17.2 63 59 9.3 48.7
09:50 1022 30.18 852 25.16 17.4 63.2 59 9.4 48.9
09:55 1022 30.18 852 25.16 17.4 63.4 59 9.5 49
10:00 1022 30.18 852 25.16 17.5 63.4 59 9.5 49.1
10:05 1022 30.18 852 25.16 17.6 63.7 59 9.5 49.2
10:10 1022 30.18 852 25.16 17.6 63.7 58 9.4 48.9
10:15 1022 30.18 852 25.16 17.6 63.8 58 9.5 49
10:20 1022 30.18 852 25.16 17.7 63.9 58 9.5 49.1
10:25 1022 30.18 852 25.16 17.8 64.1 58 9.5 49.1
10:30 1022 30.18 852 25.16 17.9 64.3 57 9.4 48.8
10:35 1022 30.18 852 25.16 18 64.5 56 9.3 48.8
10:40 1022 30.18 851 25.13 18.1 64.7 56 9.4 49
10:45 1022 30.18 851 25.13 18.2 64.7 57 9.7 49.5
10:50 1022 30.18 851 25.13 18.2 64.8 57 9.5 49.2
10:55 1022 30.18 851 25.13 18.3 64.9 57 9.6 49.3
11:00 1022 30.18 851 25.13 18.5 65.2 56 9.7 49.4
11:05 1022 30.18 851 25.13 18.6 65.5 56 9.8 49.6
11:10 1022 30.18 851 25.13 18.8 65.8 55 9.7 49.4
11:15 1022 30.18 851 25.13 18.7 65.6 56 9.9 49.8
11:20 1022 30.18 851 25.13 18.9 66.1 55 9.7 49.5
11:25 1022 30.18 851 25.13 19.1 66.3 53 9.4 48.9
11:30 1022 30.18 851 25.13 19.4 66.8 51 9.2 48.6
11:35 1022 30.18 851 25.13 19.6 67.3 51 9.3 48.8
11:40 1022 30.18 851 25.13 19.7 67.4 51 9.4 48.8
11:45 1022 30.18 851 25.13 19.9 67.9 49 9.2 48.5
11:50 1022 30.18 851 25.13 20 68 50 9.5 49.1
11:55 1022 30.18 851 25.13 20.3 68.5 48 9.1 48.4
12:00 1022 30.18 851 25.13 20.8 69.4 47 9.1 48.4
12:05 1022 30.18 851 25.13 20.9 69.7 46 9.1 48.4
12:10 1022 30.18 851 25.13 21.6 70.8 44 8.8 47.9
12:15 1022 30.18 851 25.13 21.6 70.9 45 9.5 49
12:20 1022 30.18 851 25.13 21.9 71.4 43 8.9 48.1
12:25 1021 30.15 851 25.13 21.8 71.3 45 9.4 48.9
12:30 1021 30.15 851 25.13 21.2 70.1 47 9.5 49.1
12:35 1021 30.15 851 25.13 20.8 69.5 47 9.4 48.9
12:40 1021 30.15 851 25.13 20.7 69.3 48 9.6 49.2
12:45 1021 30.15 851 25.13 20.8 69.4 48 9.4 49
12:50 1021 30.15 851 25.13 20.7 69.2 48 9.6 49.2
12:55 1021 30.15 851 25.13 20.7 69.3 48 9.4 48.9
13:00 1021 30.15 851 25.13 20.7 69.2 49 9.6 49.3
13:05 1021 30.15 851 25.13 20.6 69.1 49 9.7 49.4
13:10 1021 30.15 851 25.13 20.6 69.1 49 9.7 49.5
13:15 1021 30.15 851 25.13 20.6 69.1 49 9.7 49.5
13:20 1022 30.18 851 25.13 20.6 69.1 49 9.7 49.5
13:25 1022 30.18 851 25.13 20.6 69.1 49 9.6 49.3
13:30 1022 30.18 851 25.13 20.6 69 49 9.7 49.5
13:35 1022 30.18 851 25.13 20.6 69 50 10 50
13:40 1022 30.18 851 25.13 20.6 69 49 9.6 49.3
13:45 1022 30.18 851 25.13 20.5 68.9 50 9.7 49.5
13:50 1022 30.18 851 25.13 20.5 68.9 51 10.1 50.1
13:55 1022 30.18 851 25.13 20.4 68.7 51 10.2 50.3
14:00 1022 30.18 851 25.13 20.2 68.4 55 11 51.8
14:05 1022 30.18 851 25.13 20 68 56 10.9 51.7
14:10 1022 30.18 851 25.13 19.9 67.8 62 12.5 54.5
14:15 1022 30.18 851 25.13 19.8 67.6 60 11.9 53.5
14:20 1022 30.18 851 25.13 19.6 67.2 59 11.5 52.8
14:25 1022 30.18 851 25.13 19 66.3 61 11.5 52.6
14:30 1022 30.18 851 25.13 18.5 65.4 61 11 51.8
14:35 1022 30.18 851 25.13 18.3 64.9 58 10.1 50.2
14:40 1022 30.18 851 25.13 18.2 64.8 58 9.9 49.9
14:45 1022 30.18 851 25.13 18.2 64.7 55 9.1 48.4
14:50 1022 30.18 851 25.13 18 64.4 56 9.2 48.5
14:55 1022 30.18 851 25.13 17.9 64.3 56 9 48.2
15:00 1022 30.18 851 25.13 17.9 64.3 55 8.8 47.8
15:05 1022 30.18 851 25.13 18.1 64.6 55 9 48.2
15:10 1021 30.15 851 25.13 18.3 64.9 55 9.2 48.5
15:15 1021 30.15 851 25.13 18.4 65.1 55 9.2 48.6
15:20 1021 30.15 850 25.1 18.5 65.4 54 9.2 48.6
15:25 1021 30.15 850 25.1 19.1 66.3 52 9.2 48.6
15:30 1021 30.15 850 25.1 19.7 67.4 52 9.6 49.3
15:35 1021 30.15 850 25.1 20 68.1 49 9.1 48.4
15:40 1021 30.15 850 25.1 20.3 68.6 49 9.3 48.7
15:45 1021 30.15 850 25.1 20.9 69.7 46 9.1 48.4
15:50 1021 30.15 850 25.1 21.1 70 47 9.4 49
15:55 1021 30.15 850 25.1 21.3 70.3 47 9.7 49.4
16:00 1021 30.15 850 25.1 21.1 70 48 9.8 49.6
16:05 1021 30.15 850 25.1 21.4 70.6 47 9.9 49.8
16:10 1021 30.15 850 25.1 21.1 70 49 10 50
16:15 1021 30.15 850 25.1 20.8 69.5 49 9.9 49.8
16:20 1021 30.15 850 25.1 20.9 69.6 50 10.2 50.3
16:25 1021 30.15 850 25.1 20.9 69.5 49 9.8 49.6
16:30 1021 30.15 850 25.1 21 69.8 48 9.6 49.4
16:35 1021 30.15 850 25.1 21.2 70.2 47 9.7 49.4
16:40 1021 30.15 850 25.1 21.2 70.2 45 9.1 48.4
16:45 1021 30.15 850 25.1 21.3 70.3 44 8.8 47.9
16:50 1021 30.15 850 25.1 21.1 70.1 44 8.7 47.7
16:55 1021 30.15 850 25.1 21.3 70.3 43 8.3 46.9
17:00 1021 30.15 850 25.1 21.3 70.4 43 8.4 47.2
17:05 1021 30.15 850 25.1 21.2 70.2 43 8.4 47.1
17:10 1021 30.15 850 25.1 21.1 70 44 8.6 47.4
17:15 1021 30.15 850 25.1 20.9 69.5 44 8.2 46.8
17:20 1021 30.15 850 25.1 20.6 69.1 45 8.4 47
17:25 1021 30.15 850 25.1 20.5 68.9 45 8.3 46.9
17:30 1021 30.15 850 25.1 20.4 68.8 45 8.3 47
17:35 1021 30.15 850 25.1 20.3 68.6 46 8.5 47.3
17:40 1021 30.15 850 25.1 20.2 68.4 46 8.4 47.2
17:45 1021 30.15 850 25.1 20.2 68.3 46 8.4 47.2
17:50 1021 30.15 850 25.1 20.1 68.2 47 8.5 47.3
17:55 1021 30.15 850 25.1 20.1 68.2 47 8.5 47.4
18:00 1021 30.15 850 25.1 20 68 47 8.5 47.3
18:05 1021 30.15 850 25.1 19.9 67.9 47 8.5 47.2
18:10 1021 30.15 850 25.1 19.9 67.9 46 8.2 46.8
18:15 1021 30.15 850 25.1 20 67.9 46 8.1 46.6
18:20 1021 30.15 850 25.1 19.9 67.9 46 8 46.3
18:25 1021 30.15 850 25.1 19.9 67.9 43 7 44.6
18:30 1021 30.15 850 25.1 19.9 67.8 45 7.6 45.7
18:35 1021 30.15 850 25.1 19.7 67.4 45 7.4 45.4
18:40 1021 30.15 850 25.1 19.6 67.2 44 7.3 45.1
18:45 1021 30.15 850 25.1 19.5 67.1 45 7.4 45.3
18:50 1021 30.15 850 25.1 19.4 67 45 7.4 45.4
18:55 1021 30.15 850 25.1 19.3 66.8 46 7.6 45.8
19:00 1021 30.15 851 25.13 19.2 66.5 47 7.8 46
19:05 1021 30.15 851 25.13 19.1 66.3 48 8 46.4
19:10 1021 30.15 851 25.13 19 66.1 49 8.1 46.5
19:15 1022 30.18 851 25.13 18.9 66.1 49 8.3 46.9
19:20 1022 30.18 851 25.13 18.9 65.9 50 8.3 47
19:25 1022 30.18 851 25.13 18.8 65.8 51 8.6 47.4
19:30 1022 30.18 851 25.13 18.7 65.6 52 8.7 47.6
19:35 1022 30.18 851 25.13 18.5 65.3 53 8.8 47.8
19:40 1022 30.18 851 25.13 18.4 65.1 53 8.9 48
19:45 1022 30.18 851 25.13 18.3 65 53 8.8 47.9
19:50 1022 30.18 851 25.13 18.3 64.9 54 8.9 48
19:55 1022 30.18 851 25.13 18.2 64.7 54 8.9 48
20:00 1022 30.18 851 25.13 18.1 64.5 55 9.1 48.3
20:05 1022 30.18 851 25.13 18 64.3 55 9 48.2
20:10 1022 30.18 851 25.13 18 64.3 56 9.1 48.3
20:15 1022 30.18 851 25.13 18 64.3 55 8.9 48
20:20 1022 30.18 852 25.16 18.1 64.5 55 8.9 48
20:25 1022 30.18 852 25.16 18.1 64.6 54 8.9 47.9
20:30 1022 30.18 852 25.16 18.2 64.7 54 8.8 47.8
20:35 1022 30.18 852 25.16 18.2 64.7 54 8.8 47.9
20:40 1022 30.18 851 25.13 18.1 64.5 56 9.3 48.8
20:45 1022 30.18 851 25.13 17.9 64.2 57 9.4 48.9
20:50 1021 30.15 851 25.13 17.9 64.2 57 9.3 48.7
20:55 1022 30.18 851 25.13 17.9 64.2 56 9.2 48.5
21:00 1022 30.18 851 25.13 17.8 64.1 57 9.3 48.7
21:05 1022 30.18 851 25.13 17.7 63.9 57 9.2 48.5
21:10 1022 30.18 851 25.13 17.7 63.9 56 9 48.2
21:15 1022 30.18 851 25.13 17.9 64.1 55 8.8 47.9
21:20 1022 30.18 851 25.13 18 64.4 55 8.8 47.9
21:25 1022 30.18 851 25.13 18.1 64.6 52 8.4 47.1
21:30 1022 30.18 851 25.13 18.2 64.8 53 8.5 47.3
21:35 1022 30.18 851 25.13 18 64.5 56 9.1 48.4
21:40 1022 30.18 851 25.13 17.8 64 58 9.5 49
21:45 1022 30.18 851 25.13 17.5 63.5 58 9.1 48.4
21:50 1022 30.18 851 25.13 17.4 63.4 58 9.3 48.7
21:55 1022 30.18 851 25.13 17.3 63.1 58 9.1 48.4
22:00 1022 30.18 851 25.13 17.3 63.2 58 9.1 48.5
22:05 1022 30.18 851 25.13 17.3 63.1 59 9.4 48.9
22:10 1021 30.15 850 25.1 17 62.6 61 9.5 49
22:15 1021 30.15 850 25.1 16.9 62.5 59 9 48.2
22:20 1021 30.15 850 25.1 17.1 62.8 58 9 48.2
22:25 1021 30.15 850 25.1 17.3 63.1 57 8.7 47.7
22:30 1020 30.12 849 25.07 17.5 63.6 55 8.5 47.4
22:35 1020 30.12 849 25.07 17.7 63.9 53 8.2 46.7
22:40 1020 30.12 850 25.1 18 64.4 52 8.2 46.8
22:45 1020 30.12 850 25.1 17.9 64.2 55 8.8 47.9
22:50 1021 30.15 850 25.1 17.9 64.1 54 8.6 47.5
22:55 1021 30.15 851 25.13 17.6 63.7 60 9.8 49.7
23:00 1021 30.15 851 25.13 17.3 63.1 57 8.7 47.7
23:05 1022 30.18 851 25.13 17.7 63.8 52 7.8 46
23:10 1022 30.18 851 25.13 18.2 64.7 49 7.3 45.1
23:15 1022 30.18 851 25.13 18.4 65.1 51 8.3 46.9
23:20 1022 30.18 851 25.13 18.2 64.7 50 7.9 46.1
23:25 1022 30.18 851 25.13 18.4 65 49 7.7 45.8
23:30 1021 30.15 851 25.13 18.4 65 49 7.5 45.6
23:35 1021 30.15 851 25.13 18.4 65.1 50 8 46.3
23:40 1022 30.18 851 25.13 18.3 65 50 7.8 46.1
23:45 1021 30.15 851 25.13 18.1 64.6 52 8.1 46.6
23:50 1022 30.18 851 25.13 17.9 64.2 52 8.1 46.6
23:55 1022 30.18 851 25.13 17.7 63.8 53 8.2 46.7
24:00 1022 30.18 851 25.13 17.5 63.4 54 8.1 46.6